sensor_id;sensor_type;location;lat;lon;timestamp;pressure;altitude;pressure_sealevel;temperature;humidity
43621;BME280;29213;50.770;7.298;2023-08-30T00:01:57;100122.28;;;13.34;63.81
43621;BME280;29213;50.770;7.298;2023-08-30T00:04:22;100143.38;;;13.51;63.82
43621;BME280;29213;50.770;7.298;2023-08-30T00:06:48;100163.41;;;13.62;64.33
43621;BME280;29213;50.770;7.298;2023-08-30T00:09:13;100165.47;;;13.60;64.34
43621;BME280;29213;50.770;7.298;2023-08-30T00:11:39;100003.81;;;12.62;64.30
43621;BME280;29213;50.770;7.298;2023-08-30T00:14:06;100223.75;;;13.93;64.16
43621;BME280;29213;50.770;7.298;2023-08-30T00:16:32;100218.78;;;13.90;64.12
43621;BME280;29213;50.770;7.298;2023-08-30T00:18:58;100162.28;;;13.49;64.17
43621;BME280;29213;50.770;7.298;2023-08-30T00:21:25;100229.66;;;13.88;64.13
43621;BME280;29213;50.770;7.298;2023-08-30T00:23:51;100059.16;;;12.90;64.23
43621;BME280;29213;50.770;7.298;2023-08-30T00:26:16;100215.84;;;13.85;64.41
43621;BME280;29213;50.770;7.298;2023-08-30T00:28:42;100071.50;;;12.91;64.42
43621;BME280;29213;50.770;7.298;2023-08-30T00:31:08;100188.50;;;13.61;64.34
43621;BME280;29213;50.770;7.298;2023-08-30T00:33:33;100147.97;;;13.35;64.55
43621;BME280;29213;50.770;7.298;2023-08-30T00:35:59;100184.38;;;13.58;64.49
43621;BME280;29213;50.770;7.298;2023-08-30T00:38:26;100216.44;;;13.80;64.55
43621;BME280;29213;50.770;7.298;2023-08-30T00:40:52;100219.31;;;13.79;64.53
43621;BME280;29213;50.770;7.298;2023-08-30T00:43:18;100130.38;;;13.19;64.56
43621;BME280;29213;50.770;7.298;2023-08-30T00:45:44;100170.50;;;13.48;64.73
43621;BME280;29213;50.770;7.298;2023-08-30T00:48:10;100125.28;;;13.25;64.70
43621;BME280;29213;50.770;7.298;2023-08-30T00:50:36;100190.81;;;13.64;64.46
43621;BME280;29213;50.770;7.298;2023-08-30T00:53:02;100205.06;;;13.71;64.73
43621;BME280;29213;50.770;7.298;2023-08-30T00:55:34;100047.69;;;12.74;64.60
43621;BME280;29213;50.770;7.298;2023-08-30T00:58:00;100205.88;;;13.72;64.68
43621;BME280;29213;50.770;7.298;2023-08-30T01:00:28;100154.22;;;13.43;64.70
43621;BME280;29213;50.770;7.298;2023-08-30T01:02:55;100117.81;;;13.20;64.79
43621;BME280;29213;50.770;7.298;2023-08-30T01:05:20;100122.19;;;13.28;64.75
43621;BME280;29213;50.770;7.298;2023-08-30T01:07:45;100153.19;;;13.44;64.80
43621;BME280;29213;50.770;7.298;2023-08-30T01:10:11;100145.31;;;13.35;64.69
43621;BME280;29213;50.770;7.298;2023-08-30T01:12:40;100186.88;;;13.60;64.68
43621;BME280;29213;50.770;7.298;2023-08-30T01:15:21;100187.91;;;13.59;64.53
43621;BME280;29213;50.770;7.298;2023-08-30T01:17:51;100128.13;;;13.23;64.64
43621;BME280;29213;50.770;7.298;2023-08-30T01:20:18;100179.22;;;13.57;64.55
43621;BME280;29213;50.770;7.298;2023-08-30T01:25:52;100171.59;;;13.54;64.82
43621;BME280;29213;50.770;7.298;2023-08-30T01:28:23;100139.72;;;13.30;64.79
43621;BME280;29213;50.770;7.298;2023-08-30T01:30:50;100139.91;;;13.29;64.81
43621;BME280;29213;50.770;7.298;2023-08-30T01:33:20;100122.91;;;13.15;64.73
43621;BME280;29213;50.770;7.298;2023-08-30T01:35:46;100145.22;;;13.22;64.75
43621;BME280;29213;50.770;7.298;2023-08-30T01:38:12;100167.16;;;13.39;65.06
43621;BME280;29213;50.770;7.298;2023-08-30T01:40:42;100169.22;;;13.44;65.08
43621;BME280;29213;50.770;7.298;2023-08-30T01:43:08;100102.19;;;13.02;65.03
43621;BME280;29213;50.770;7.298;2023-08-30T01:45:38;100163.25;;;13.42;64.96
43621;BME280;29213;50.770;7.298;2023-08-30T01:48:06;100164.28;;;13.41;65.11
43621;BME280;29213;50.770;7.298;2023-08-30T01:50:32;100101.75;;;12.98;65.20
43621;BME280;29213;50.770;7.298;2023-08-30T01:52:59;100059.41;;;12.73;65.41
43621;BME280;29213;50.770;7.298;2023-08-30T01:55:26;100166.72;;;13.35;65.37
43621;BME280;29213;50.770;7.298;2023-08-30T01:57:53;100052.53;;;12.64;65.53
43621;BME280;29213;50.770;7.298;2023-08-30T02:00:19;100118.75;;;13.05;65.51
43621;BME280;29213;50.770;7.298;2023-08-30T02:02:45;100032.06;;;12.49;65.42
43621;BME280;29213;50.770;7.298;2023-08-30T02:05:10;100151.19;;;13.24;65.28
43621;BME280;29213;50.770;7.298;2023-08-30T02:08:00;100164.22;;;13.34;65.36
43621;BME280;29213;50.770;7.298;2023-08-30T02:10:35;100141.44;;;13.16;65.28
43621;BME280;29213;50.770;7.298;2023-08-30T02:13:04;100038.66;;;12.53;65.37
43621;BME280;29213;50.770;7.298;2023-08-30T02:15:32;100084.41;;;12.87;65.33
43621;BME280;29213;50.770;7.298;2023-08-30T02:17:58;100102.53;;;12.92;65.41
43621;BME280;29213;50.770;7.298;2023-08-30T02:20:24;100157.81;;;13.28;65.69
43621;BME280;29213;50.770;7.298;2023-08-30T02:22:50;100158.63;;;13.29;65.76
43621;BME280;29213;50.770;7.298;2023-08-30T02:25:16;100068.72;;;12.77;65.70
43621;BME280;29213;50.770;7.298;2023-08-30T02:27:41;100117.91;;;13.05;65.59
43621;BME280;29213;50.770;7.298;2023-08-30T02:30:07;100131.13;;;13.13;65.84
43621;BME280;29213;50.770;7.298;2023-08-30T02:32:33;100096.41;;;12.98;65.85
43621;BME280;29213;50.770;7.298;2023-08-30T02:34:58;100148.09;;;13.27;65.71
43621;BME280;29213;50.770;7.298;2023-08-30T02:37:24;100054.44;;;12.70;65.76
43621;BME280;29213;50.770;7.298;2023-08-30T02:39:49;100002.97;;;12.39;65.69
43621;BME280;29213;50.770;7.298;2023-08-30T02:42:14;100088.34;;;12.91;65.83
43621;BME280;29213;50.770;7.298;2023-08-30T02:44:40;100075.13;;;12.83;66.06
43621;BME280;29213;50.770;7.298;2023-08-30T02:47:06;100085.28;;;12.94;65.89
43621;BME280;29213;50.770;7.298;2023-08-30T02:49:31;100108.47;;;13.09;65.92
43621;BME280;29213;50.770;7.298;2023-08-30T02:51:56;100063.84;;;12.88;66.04
43621;BME280;29213;50.770;7.298;2023-08-30T02:54:22;100072.31;;;12.91;65.91
43621;BME280;29213;50.770;7.298;2023-08-30T02:56:48;99974.13;;;12.28;66.13
43621;BME280;29213;50.770;7.298;2023-08-30T02:59:13;100096.16;;;13.08;66.02
43621;BME280;29213;50.770;7.298;2023-08-30T03:01:39;100127.19;;;13.31;65.93
43621;BME280;29213;50.770;7.298;2023-08-30T03:04:05;100062.00;;;12.88;66.04
43621;BME280;29213;50.770;7.298;2023-08-30T03:06:32;100122.03;;;13.29;66.08
43621;BME280;29213;50.770;7.298;2023-08-30T03:08:57;100040.97;;;12.78;66.03
43621;BME280;29213;50.770;7.298;2023-08-30T03:11:23;100069.88;;;12.96;66.08
43621;BME280;29213;50.770;7.298;2023-08-30T03:13:49;100067.00;;;12.98;66.08
43621;BME280;29213;50.770;7.298;2023-08-30T03:16:16;100057.28;;;12.90;66.10
43621;BME280;29213;50.770;7.298;2023-08-30T03:18:43;100128.63;;;13.33;66.26
43621;BME280;29213;50.770;7.298;2023-08-30T03:21:09;100124.94;;;13.34;66.17
43621;BME280;29213;50.770;7.298;2023-08-30T03:23:35;99967.22;;;12.34;66.16
43621;BME280;29213;50.770;7.298;2023-08-30T03:28:36;100060.59;;;12.92;66.28
43621;BME280;29213;50.770;7.298;2023-08-30T03:31:01;100053.09;;;12.81;66.37
43621;BME280;29213;50.770;7.298;2023-08-30T03:33:27;100084.50;;;13.01;66.38
43621;BME280;29213;50.770;7.298;2023-08-30T03:35:52;100135.81;;;13.33;66.34
43621;BME280;29213;50.770;7.298;2023-08-30T03:38:17;100114.38;;;13.26;66.41
43621;BME280;29213;50.770;7.298;2023-08-30T03:40:43;99957.91;;;12.29;66.70
43621;BME280;29213;50.770;7.298;2023-08-30T03:43:08;99972.81;;;12.39;66.47
43621;BME280;29213;50.770;7.298;2023-08-30T03:45:35;100072.66;;;13.03;66.59
43621;BME280;29213;50.770;7.298;2023-08-30T03:48:01;100081.16;;;13.14;66.58
43621;BME280;29213;50.770;7.298;2023-08-30T03:50:27;100049.06;;;12.92;66.61
43621;BME280;29213;50.770;7.298;2023-08-30T03:52:52;100057.44;;;13.04;66.45
43621;BME280;29213;50.770;7.298;2023-08-30T03:55:17;100086.75;;;13.19;66.67
43621;BME280;29213;50.770;7.298;2023-08-30T03:57:43;100100.13;;;13.19;66.52
43621;BME280;29213;50.770;7.298;2023-08-30T04:00:08;100026.75;;;12.78;66.63
43621;BME280;29213;50.770;7.298;2023-08-30T04:02:36;99963.78;;;12.40;66.56
43621;BME280;29213;50.770;7.298;2023-08-30T04:05:01;100032.75;;;12.80;66.39
43621;BME280;29213;50.770;7.298;2023-08-30T04:07:27;99996.00;;;12.60;66.31
43621;BME280;29213;50.770;7.298;2023-08-30T04:09:53;99999.03;;;12.57;66.25
43621;BME280;29213;50.770;7.298;2023-08-30T04:12:18;100065.38;;;12.97;66.36
43621;BME280;29213;50.770;7.298;2023-08-30T04:14:44;100094.09;;;13.10;66.45
43621;BME280;29213;50.770;7.298;2023-08-30T04:17:09;100059.34;;;12.88;66.42
43621;BME280;29213;50.770;7.298;2023-08-30T04:19:34;100090.16;;;13.06;66.60
43621;BME280;29213;50.770;7.298;2023-08-30T04:22:00;100063.47;;;12.91;66.45
43621;BME280;29213;50.770;7.298;2023-08-30T04:24:25;100125.47;;;13.23;66.66
43621;BME280;29213;50.770;7.298;2023-08-30T04:26:51;100091.59;;;13.08;66.21
43621;BME280;29213;50.770;7.298;2023-08-30T04:29:18;100042.09;;;12.69;66.59
43621;BME280;29213;50.770;7.298;2023-08-30T04:31:44;100005.09;;;12.44;66.53
43621;BME280;29213;50.770;7.298;2023-08-30T04:34:09;100048.72;;;12.73;66.46
43621;BME280;29213;50.770;7.298;2023-08-30T04:36:34;100058.81;;;12.78;66.33
43621;BME280;29213;50.770;7.298;2023-08-30T04:39:00;100071.41;;;12.84;66.41
43621;BME280;29213;50.770;7.298;2023-08-30T04:41:26;100035.03;;;12.61;66.44
43621;BME280;29213;50.770;7.298;2023-08-30T04:43:51;99934.03;;;11.99;66.30
43621;BME280;29213;50.770;7.298;2023-08-30T04:46:17;100076.22;;;12.89;66.45
43621;BME280;29213;50.770;7.298;2023-08-30T04:48:42;100040.63;;;12.66;66.21
43621;BME280;29213;50.770;7.298;2023-08-30T04:51:07;100109.03;;;13.04;66.09
43621;BME280;29213;50.770;7.298;2023-08-30T04:53:33;99991.16;;;12.27;66.50
43621;BME280;29213;50.770;7.298;2023-08-30T04:55:58;100050.75;;;12.49;67.04
43621;BME280;29213;50.770;7.298;2023-08-30T04:58:24;100023.47;;;12.32;67.20
43621;BME280;29213;50.770;7.298;2023-08-30T05:00:49;100042.53;;;12.51;67.35
43621;BME280;29213;50.770;7.298;2023-08-30T05:03:15;100055.78;;;12.59;67.11
43621;BME280;29213;50.770;7.298;2023-08-30T05:05:44;100073.72;;;12.65;67.42
43621;BME280;29213;50.770;7.298;2023-08-30T05:08:10;100070.41;;;12.41;67.70
43621;BME280;29213;50.770;7.298;2023-08-30T05:10:36;100012.88;;;12.02;67.79
43621;BME280;29213;50.770;7.298;2023-08-30T05:13:02;100029.34;;;12.06;68.22
43621;BME280;29213;50.770;7.298;2023-08-30T05:15:29;99987.50;;;11.76;68.52
43621;BME280;29213;50.770;7.298;2023-08-30T05:17:54;99999.44;;;11.80;68.51
43621;BME280;29213;50.770;7.298;2023-08-30T05:20:19;100022.63;;;11.95;68.36
43621;BME280;29213;50.770;7.298;2023-08-30T05:22:45;100089.72;;;12.43;68.54
43621;BME280;29213;50.770;7.298;2023-08-30T05:25:10;100038.38;;;12.05;68.23
43621;BME280;29213;50.770;7.298;2023-08-30T05:27:36;100011.47;;;11.91;68.31
43621;BME280;29213;50.770;7.298;2023-08-30T05:30:01;100092.28;;;12.52;68.13
43621;BME280;29213;50.770;7.298;2023-08-30T05:32:28;100012.94;;;12.09;67.59
43621;BME280;29213;50.770;7.298;2023-08-30T05:34:53;100040.38;;;12.39;67.43
43621;BME280;29213;50.770;7.298;2023-08-30T05:37:19;100041.03;;;12.41;67.13
43621;BME280;29213;50.770;7.298;2023-08-30T05:39:44;100069.00;;;12.67;66.85
43621;BME280;29213;50.770;7.298;2023-08-30T05:42:10;99994.59;;;12.21;66.73
43621;BME280;29213;50.770;7.298;2023-08-30T05:44:35;100020.88;;;12.39;66.54
43621;BME280;29213;50.770;7.298;2023-08-30T05:47:00;100015.72;;;12.37;66.58
43621;BME280;29213;50.770;7.298;2023-08-30T05:49:26;99941.38;;;11.97;66.46
43621;BME280;29213;50.770;7.298;2023-08-30T05:51:51;100027.47;;;12.43;66.40
43621;BME280;29213;50.770;7.298;2023-08-30T05:54:17;100058.56;;;12.73;66.43
43621;BME280;29213;50.770;7.298;2023-08-30T05:56:42;99971.19;;;12.23;66.32
43621;BME280;29213;50.770;7.298;2023-08-30T05:59:07;100055.91;;;12.73;66.43
43621;BME280;29213;50.770;7.298;2023-08-30T06:01:33;99896.16;;;11.74;66.42
43621;BME280;29213;50.770;7.298;2023-08-30T06:03:58;100039.00;;;12.65;66.28
43621;BME280;29213;50.770;7.298;2023-08-30T06:06:24;100023.53;;;12.61;66.31
43621;BME280;29213;50.770;7.298;2023-08-30T06:08:49;100019.19;;;12.60;66.44
43621;BME280;29213;50.770;7.298;2023-08-30T06:11:15;100042.72;;;12.71;66.19
43621;BME280;29213;50.770;7.298;2023-08-30T06:13:40;100007.56;;;12.46;66.29
43621;BME280;29213;50.770;7.298;2023-08-30T06:16:06;100029.84;;;12.53;66.50
43621;BME280;29213;50.770;7.298;2023-08-30T06:18:31;99972.78;;;12.17;66.54
43621;BME280;29213;50.770;7.298;2023-08-30T06:20:57;99975.13;;;12.05;66.57
43621;BME280;29213;50.770;7.298;2023-08-30T06:23:23;100019.84;;;12.40;66.77
43621;BME280;29213;50.770;7.298;2023-08-30T06:25:58;100025.31;;;12.53;66.92
43621;BME280;29213;50.770;7.298;2023-08-30T06:28:23;99998.28;;;12.41;66.69
43621;BME280;29213;50.770;7.298;2023-08-30T06:30:49;100055.81;;;12.88;66.74
43621;BME280;29213;50.770;7.298;2023-08-30T06:33:15;99931.22;;;12.08;66.80
43621;BME280;29213;50.770;7.298;2023-08-30T06:35:40;100052.97;;;12.89;66.90
43621;BME280;29213;50.770;7.298;2023-08-30T06:38:06;99920.59;;;12.14;66.66
43621;BME280;29213;50.770;7.298;2023-08-30T06:40:32;99970.25;;;12.52;66.78
43621;BME280;29213;50.770;7.298;2023-08-30T06:42:58;99941.53;;;12.33;66.55
43621;BME280;29213;50.770;7.298;2023-08-30T06:45:24;100048.84;;;13.08;66.77
43621;BME280;29213;50.770;7.298;2023-08-30T06:47:50;99949.13;;;12.58;66.58
43621;BME280;29213;50.770;7.298;2023-08-30T06:50:17;99890.72;;;12.26;66.57
43621;BME280;29213;50.770;7.298;2023-08-30T06:52:42;99811.09;;;11.86;66.36
43621;BME280;29213;50.770;7.298;2023-08-30T06:55:08;100000.34;;;13.12;66.48
43621;BME280;29213;50.770;7.298;2023-08-30T06:57:33;99957.84;;;12.95;66.60
43621;BME280;29213;50.770;7.298;2023-08-30T06:59:59;99972.56;;;13.13;66.45
43621;BME280;29213;50.770;7.298;2023-08-30T07:02:30;99935.81;;;12.93;66.43
43621;BME280;29213;50.770;7.298;2023-08-30T07:04:56;99956.78;;;13.18;66.44
43621;BME280;29213;50.770;7.298;2023-08-30T07:07:21;100008.41;;;13.60;66.33
43621;BME280;29213;50.770;7.298;2023-08-30T07:09:47;99956.03;;;13.38;65.98
43621;BME280;29213;50.770;7.298;2023-08-30T07:12:13;99926.81;;;13.29;65.76
43621;BME280;29213;50.770;7.298;2023-08-30T07:14:38;99982.13;;;13.71;65.55
43621;BME280;29213;50.770;7.298;2023-08-30T07:17:04;99954.72;;;13.62;65.71
43621;BME280;29213;50.770;7.298;2023-08-30T07:19:30;100008.59;;;14.01;65.52
43621;BME280;29213;50.770;7.298;2023-08-30T07:21:55;99882.38;;;13.28;65.06
43621;BME280;29213;50.770;7.298;2023-08-30T07:24:21;99968.63;;;13.93;65.43
43621;BME280;29213;50.770;7.298;2023-08-30T07:26:48;100005.38;;;14.12;65.06
43621;BME280;29213;50.770;7.298;2023-08-30T07:29:13;99891.50;;;13.54;64.46
43621;BME280;29213;50.770;7.298;2023-08-30T07:31:38;99984.75;;;14.13;64.27
43621;BME280;29213;50.770;7.298;2023-08-30T07:34:06;99995.31;;;14.21;64.49
43621;BME280;29213;50.770;7.298;2023-08-30T07:36:33;99944.56;;;13.99;64.72
43621;BME280;29213;50.770;7.298;2023-08-30T07:38:59;99930.78;;;14.09;64.19
43621;BME280;29213;50.770;7.298;2023-08-30T07:41:24;99974.91;;;14.47;63.76
43621;BME280;29213;50.770;7.298;2023-08-30T07:43:49;99892.03;;;13.98;62.95
43621;BME280;29213;50.770;7.298;2023-08-30T07:46:15;99906.06;;;14.14;63.14
43621;BME280;29213;50.770;7.298;2023-08-30T07:48:40;99873.91;;;14.00;62.67
43621;BME280;29213;50.770;7.298;2023-08-30T07:51:06;99966.47;;;14.64;62.64
43621;BME280;29213;50.770;7.298;2023-08-30T07:53:31;99913.13;;;14.35;62.65
43621;BME280;29213;50.770;7.298;2023-08-30T07:55:57;99959.47;;;14.83;63.17
43621;BME280;29213;50.770;7.298;2023-08-30T07:58:22;99963.78;;;14.98;62.92
43621;BME280;29213;50.770;7.298;2023-08-30T08:00:51;99885.06;;;14.65;62.83
43621;BME280;29213;50.770;7.298;2023-08-30T08:03:17;99920.69;;;14.99;62.24
43621;BME280;29213;50.770;7.298;2023-08-30T08:05:42;99868.34;;;14.76;61.37
43621;BME280;29213;50.770;7.298;2023-08-30T08:08:08;99950.50;;;15.36;61.56
43621;BME280;29213;50.770;7.298;2023-08-30T08:10:33;99897.97;;;15.15;61.53
43621;BME280;29213;50.770;7.298;2023-08-30T08:12:59;99904.31;;;15.34;60.28
43621;BME280;29213;50.770;7.298;2023-08-30T08:15:25;99892.31;;;15.37;59.75
43621;BME280;29213;50.770;7.298;2023-08-30T08:17:50;99946.44;;;15.80;60.39
43621;BME280;29213;50.770;7.298;2023-08-30T08:20:16;99913.38;;;15.79;60.73
43621;BME280;29213;50.770;7.298;2023-08-30T08:22:41;99950.59;;;16.14;60.12
43621;BME280;29213;50.770;7.298;2023-08-30T08:25:07;99976.47;;;16.41;59.55
43621;BME280;29213;50.770;7.298;2023-08-30T08:27:36;99958.63;;;16.47;59.21
43621;BME280;29213;50.770;7.298;2023-08-30T08:30:02;99941.63;;;16.53;57.93
43621;BME280;29213;50.770;7.298;2023-08-30T08:32:29;99987.69;;;16.89;54.42
43621;BME280;29213;50.770;7.298;2023-08-30T08:34:56;99924.63;;;16.59;54.78
43621;BME280;29213;50.770;7.298;2023-08-30T08:37:21;99974.25;;;17.07;53.82
43621;BME280;29213;50.770;7.298;2023-08-30T08:39:47;99945.47;;;16.89;54.69
43621;BME280;29213;50.770;7.298;2023-08-30T08:42:18;99981.31;;;17.27;53.56
43621;BME280;29213;50.770;7.298;2023-08-30T08:44:46;99952.00;;;17.19;53.13
43621;BME280;29213;50.770;7.298;2023-08-30T08:47:11;99895.34;;;16.95;52.83
43621;BME280;29213;50.770;7.298;2023-08-30T08:49:37;99913.94;;;17.15;52.08
43621;BME280;29213;50.770;7.298;2023-08-30T08:52:03;99929.78;;;17.42;51.75
43621;BME280;29213;50.770;7.298;2023-08-30T08:54:30;99976.97;;;17.82;52.10
43621;BME280;29213;50.770;7.298;2023-08-30T08:56:56;99952.66;;;17.70;51.98
43621;BME280;29213;50.770;7.298;2023-08-30T08:59:23;99945.44;;;17.83;51.37
43621;BME280;29213;50.770;7.298;2023-08-30T09:01:49;99823.09;;;17.17;51.63
43621;BME280;29213;50.770;7.298;2023-08-30T09:04:15;99955.84;;;18.10;51.28
43621;BME280;29213;50.770;7.298;2023-08-30T09:06:40;99902.84;;;17.92;50.92
43621;BME280;29213;50.770;7.298;2023-08-30T09:09:07;99851.00;;;17.66;50.70
43621;BME280;29213;50.770;7.298;2023-08-30T09:11:33;99969.63;;;18.44;49.63
43621;BME280;29213;50.770;7.298;2023-08-30T09:13:59;99962.97;;;18.47;49.85
43621;BME280;29213;50.770;7.298;2023-08-30T09:16:24;99956.06;;;18.51;49.13
43621;BME280;29213;50.770;7.298;2023-08-30T09:19:04;99938.69;;;18.47;48.73
43621;BME280;29213;50.770;7.298;2023-08-30T09:21:30;99961.03;;;18.66;49.26
43621;BME280;29213;50.770;7.298;2023-08-30T09:24:06;99865.44;;;18.14;49.09
43621;BME280;29213;50.770;7.298;2023-08-30T09:26:32;99958.47;;;18.83;48.46
43621;BME280;29213;50.770;7.298;2023-08-30T09:29:06;99956.13;;;18.87;48.52
43621;BME280;29213;50.770;7.298;2023-08-30T09:31:36;99839.19;;;18.21;49.01
43621;BME280;29213;50.770;7.298;2023-08-30T09:34:02;99920.81;;;18.88;48.91
43621;BME280;29213;50.770;7.298;2023-08-30T09:39:10;99905.19;;;19.02;47.11
43621;BME280;29213;50.770;7.298;2023-08-30T09:41:45;99943.84;;;19.44;46.98
43621;BME280;29213;50.770;7.298;2023-08-30T09:44:11;99940.41;;;19.48;47.14
43621;BME280;29213;50.770;7.298;2023-08-30T09:46:58;99854.53;;;18.92;45.88
43621;BME280;29213;50.770;7.298;2023-08-30T09:49:25;99921.34;;;19.38;46.29
43621;BME280;29213;50.770;7.298;2023-08-30T09:51:53;99923.19;;;19.49;47.32
43621;BME280;29213;50.770;7.298;2023-08-30T09:54:20;99906.78;;;19.39;46.26
43621;BME280;29213;50.770;7.298;2023-08-30T09:56:46;99889.84;;;19.44;46.28
43621;BME280;29213;50.770;7.298;2023-08-30T09:59:13;99922.00;;;19.74;46.90
43621;BME280;29213;50.770;7.298;2023-08-30T10:01:40;99868.34;;;19.49;46.58
43621;BME280;29213;50.770;7.298;2023-08-30T10:04:07;99840.59;;;19.37;46.21
43621;BME280;29213;50.770;7.298;2023-08-30T10:06:37;99873.94;;;19.59;46.52
43621;BME280;29213;50.770;7.298;2023-08-30T10:09:03;99894.53;;;19.78;45.32
43621;BME280;29213;50.770;7.298;2023-08-30T10:11:32;99850.28;;;19.49;46.31
43621;BME280;29213;50.770;7.298;2023-08-30T10:13:59;99792.31;;;19.11;45.85
43621;BME280;29213;50.770;7.298;2023-08-30T10:16:26;99868.69;;;19.53;45.46
43621;BME280;29213;50.770;7.298;2023-08-30T10:18:54;99888.75;;;19.57;46.16
43621;BME280;29213;50.770;7.298;2023-08-30T10:21:26;99857.50;;;19.32;45.90
43621;BME280;29213;50.770;7.298;2023-08-30T10:23:52;99888.78;;;19.45;46.16
43621;BME280;29213;50.770;7.298;2023-08-30T10:26:23;99818.53;;;18.99;45.69
43621;BME280;29213;50.770;7.298;2023-08-30T10:28:51;99835.25;;;19.13;45.96
43621;BME280;29213;50.770;7.298;2023-08-30T10:31:17;99815.56;;;19.00;45.63
43621;BME280;29213;50.770;7.298;2023-08-30T10:33:49;99837.59;;;19.09;45.87
43621;BME280;29213;50.770;7.298;2023-08-30T10:38:49;99831.50;;;19.02;45.65
43621;BME280;29213;50.770;7.298;2023-08-30T10:41:20;99857.78;;;19.06;46.63
43621;BME280;29213;50.770;7.298;2023-08-30T10:43:52;99871.38;;;19.12;46.55
43621;BME280;29213;50.770;7.298;2023-08-30T10:46:29;99885.19;;;19.15;46.19
43621;BME280;29213;50.770;7.298;2023-08-30T10:48:55;99870.00;;;18.97;46.48
43621;BME280;29213;50.770;7.298;2023-08-30T10:51:38;99818.94;;;18.54;46.57
43621;BME280;29213;50.770;7.298;2023-08-30T10:54:14;99828.44;;;18.57;46.80
43621;BME280;29213;50.770;7.298;2023-08-30T10:56:47;99886.78;;;18.87;47.28
43621;BME280;29213;50.770;7.298;2023-08-30T10:59:20;99574.13;;;16.91;46.93
43621;BME280;29213;50.770;7.298;2023-08-30T11:01:47;99737.25;;;17.94;46.55
43621;BME280;29213;50.770;7.298;2023-08-30T11:04:14;99819.72;;;18.31;46.82
43621;BME280;29213;50.770;7.298;2023-08-30T11:06:42;99807.78;;;18.15;46.38
43621;BME280;29213;50.770;7.298;2023-08-30T11:09:07;99870.84;;;18.50;47.50
43621;BME280;29213;50.770;7.298;2023-08-30T11:11:36;99860.53;;;18.47;47.40
43621;BME280;29213;50.770;7.298;2023-08-30T11:14:07;99882.09;;;18.47;47.53
43621;BME280;29213;50.770;7.298;2023-08-30T11:16:34;99883.97;;;18.46;48.73
43621;BME280;29213;50.770;7.298;2023-08-30T11:19:01;99879.75;;;18.50;48.49
43621;BME280;29213;50.770;7.298;2023-08-30T11:21:29;99852.81;;;18.38;48.62
43621;BME280;29213;50.770;7.298;2023-08-30T11:23:55;99780.97;;;17.96;48.76
43621;BME280;29213;50.770;7.298;2023-08-30T11:26:21;99846.22;;;18.34;48.80
43621;BME280;29213;50.770;7.298;2023-08-30T11:28:46;99824.66;;;18.22;48.58
43621;BME280;29213;50.770;7.298;2023-08-30T11:31:23;99868.31;;;18.55;48.93
43621;BME280;29213;50.770;7.298;2023-08-30T11:33:58;99872.16;;;18.59;49.07
43621;BME280;29213;50.770;7.298;2023-08-30T11:36:27;99839.44;;;18.43;48.58
43621;BME280;29213;50.770;7.298;2023-08-30T11:38:53;99856.22;;;18.58;48.51
43621;BME280;29213;50.770;7.298;2023-08-30T11:41:23;99855.16;;;18.59;48.78
43621;BME280;29213;50.770;7.298;2023-08-30T11:43:48;99855.50;;;18.62;48.63
43621;BME280;29213;50.770;7.298;2023-08-30T11:46:14;99852.69;;;18.57;48.74
43621;BME280;29213;50.770;7.298;2023-08-30T11:48:40;99852.94;;;18.55;48.58
43621;BME280;29213;50.770;7.298;2023-08-30T11:51:07;99811.44;;;18.21;48.42
43621;BME280;29213;50.770;7.298;2023-08-30T11:53:33;99818.69;;;18.32;48.98
43621;BME280;29213;50.770;7.298;2023-08-30T11:55:59;99758.69;;;17.89;49.18
43621;BME280;29213;50.770;7.298;2023-08-30T11:58:24;99809.06;;;18.12;49.25
43621;BME280;29213;50.770;7.298;2023-08-30T12:00:50;99718.25;;;17.53;49.22
43621;BME280;29213;50.770;7.298;2023-08-30T12:03:16;99768.13;;;17.68;49.93
43621;BME280;29213;50.770;7.298;2023-08-30T12:05:46;99844.78;;;17.96;50.71
43621;BME280;29213;50.770;7.298;2023-08-30T12:08:18;99848.16;;;17.79;52.55
43621;BME280;29213;50.770;7.298;2023-08-30T12:10:45;99871.47;;;17.85;53.99
43621;BME280;29213;50.770;7.298;2023-08-30T12:13:32;99915.25;;;17.81;54.27
43621;BME280;29213;50.770;7.298;2023-08-30T12:15:59;99846.63;;;17.22;55.83
43621;BME280;29213;50.770;7.298;2023-08-30T12:18:33;99880.09;;;17.26;56.22
43621;BME280;29213;50.770;7.298;2023-08-30T12:21:03;99774.09;;;16.59;56.37
43621;BME280;29213;50.770;7.298;2023-08-30T12:23:30;99866.56;;;17.14;56.97
43621;BME280;29213;50.770;7.298;2023-08-30T12:28:28;99758.56;;;16.42;57.54
43621;BME280;29213;50.770;7.298;2023-08-30T12:30:54;99888.94;;;17.15;57.71
43621;BME280;29213;50.770;7.298;2023-08-30T12:33:20;99825.94;;;16.66;57.85
43621;BME280;29213;50.770;7.298;2023-08-30T12:35:46;99852.72;;;16.73;58.47
43621;BME280;29213;50.770;7.298;2023-08-30T12:38:11;99821.78;;;16.45;59.04
43621;BME280;29213;50.770;7.298;2023-08-30T12:40:44;99891.13;;;16.80;60.34
43621;BME280;29213;50.770;7.298;2023-08-30T12:43:10;99825.34;;;16.20;60.05
43621;BME280;29213;50.770;7.298;2023-08-30T12:45:36;99852.91;;;16.34;60.23
43621;BME280;29213;50.770;7.298;2023-08-30T12:48:02;99792.28;;;15.87;60.13
43621;BME280;29213;50.770;7.298;2023-08-30T12:50:27;99891.88;;;16.43;59.78
43621;BME280;29213;50.770;7.298;2023-08-30T12:52:54;99851.03;;;16.09;60.91
43621;BME280;29213;50.770;7.298;2023-08-30T12:55:19;99847.00;;;16.00;60.65
43621;BME280;29213;50.770;7.298;2023-08-30T12:57:44;99846.75;;;16.01;60.55
43621;BME280;29213;50.770;7.298;2023-08-30T13:00:12;99879.31;;;16.12;60.84
43621;BME280;29213;50.770;7.298;2023-08-30T13:02:38;99917.19;;;16.36;61.15
43621;BME280;29213;50.770;7.298;2023-08-30T13:05:04;99775.13;;;15.38;60.94
43621;BME280;29213;50.770;7.298;2023-08-30T13:07:30;99887.63;;;16.10;61.40